createdAt,value
2017-07-21T20:42:15.808Z,25.95
2017-07-21T20:43:29.493Z,25.99
2017-07-21T20:44:43.471Z,25.77
2017-07-21T20:45:57.194Z,25.74
2017-07-21T20:47:10.882Z,25.71
2017-07-21T20:48:24.470Z,25.59
2017-07-21T20:50:12.459Z,25.71
2017-07-21T20:52:28.412Z,25.56
2017-07-21T20:53:48.542Z,25.51
2017-07-21T20:55:02.721Z,25.61
2017-07-21T20:56:17.036Z,25.49
2017-07-21T20:57:30.651Z,25.51
2017-07-21T20:58:57.075Z,25.52
2017-07-21T21:00:10.619Z,25.48
2017-07-21T21:01:24.260Z,25.43
2017-07-21T21:02:38.523Z,25.39
2017-07-21T21:03:52.174Z,25.44
2017-07-21T21:05:06.332Z,25.4
2017-07-21T21:06:20.665Z,25.4
2017-07-21T21:07:34.611Z,25.46
2017-07-21T21:08:48.444Z,25.4
2017-07-21T21:10:02.060Z,25.36
2017-07-21T21:11:31.885Z,25.33
2017-07-21T21:12:57.967Z,25.26
2017-07-21T21:14:12.142Z,25.31
2017-07-21T21:16:26.692Z,25.21
2017-07-21T21:17:40.243Z,25.21
2017-07-21T21:18:53.829Z,25.19
2017-07-21T21:20:07.677Z,25.26
2017-07-21T21:21:21.200Z,25.19
2017-07-21T21:22:35.685Z,25.15
2017-07-21T21:23:49.472Z,25.19
2017-07-21T21:25:03.008Z,25.19
2017-07-21T21:26:16.952Z,25.16
2017-07-21T21:27:30.484Z,25.19
2017-07-21T21:28:44.009Z,25.14
2017-07-21T21:29:57.924Z,25.21
2017-07-21T21:31:11.485Z,25.16
2017-07-21T21:32:25.829Z,25.09
2017-07-21T21:33:39.396Z,25.14
2017-07-21T21:34:53.650Z,25.21
2017-07-21T21:36:07.229Z,25.15
2017-07-21T21:37:21.397Z,25.15
2017-07-21T21:38:36.118Z,25.16
2017-07-21T21:39:49.900Z,25.16
2017-07-21T21:41:03.437Z,25.14
2017-07-21T21:42:17.097Z,25.21
2017-07-21T21:43:30.944Z,25.09
2017-07-21T21:44:44.752Z,25.16
2017-07-21T21:45:58.680Z,25.09
2017-07-21T21:47:12.225Z,25.22
2017-07-21T21:48:26.080Z,25.14
2017-07-21T21:49:39.702Z,25.14
2017-07-21T21:50:53.732Z,24.99
2017-07-21T21:52:07.509Z,25.01
2017-07-21T21:53:21.240Z,24.94
2017-07-21T21:54:34.805Z,25.07
2017-07-21T21:55:48.524Z,25.01
2017-07-21T21:57:02.716Z,25.04
2017-07-21T21:58:16.393Z,25.03
2017-07-21T21:59:29.905Z,25.04
2017-07-21T22:00:43.616Z,24.96
2017-07-21T22:01:57.319Z,24.97
2017-07-21T22:03:12.252Z,25.06
2017-07-21T22:04:25.797Z,24.96
2017-07-21T22:05:39.333Z,25
2017-07-21T22:06:52.951Z,24.94
2017-07-21T22:08:07.164Z,24.96
2017-07-21T22:09:21.189Z,24.97
2017-07-21T22:10:35.278Z,24.97
2017-07-21T22:11:48.896Z,25.06
2017-07-21T22:13:02.478Z,25.01
2017-07-21T22:14:17.579Z,24.99
2017-07-21T22:15:31.407Z,24.74
2017-07-21T22:16:44.931Z,24.48
2017-07-21T22:17:58.578Z,24.38
2017-07-21T22:19:12.087Z,24.31
2017-07-21T22:20:25.700Z,24.47
2017-07-21T22:21:39.493Z,24.43
2017-07-21T22:22:53.043Z,24.38
2017-07-21T22:24:07.059Z,24.48
2017-07-21T22:25:20.578Z,24.51
2017-07-21T22:26:34.432Z,24.41
2017-07-21T22:27:48.258Z,24.37
2017-07-21T22:29:01.798Z,24.41
2017-07-21T22:30:15.301Z,24.25
2017-07-21T22:31:28.838Z,24.29
2017-07-21T22:32:42.355Z,24.28
2017-07-21T22:33:56.226Z,24.11
2017-07-21T22:35:10.064Z,24.01
2017-07-21T22:36:23.685Z,23.84
2017-07-21T22:37:37.217Z,23.62
2017-07-21T22:38:50.846Z,23.44
2017-07-21T22:40:04.714Z,23.32
2017-07-21T22:41:19.329Z,23.26
2017-07-21T22:42:34.421Z,23.01
2017-07-21T22:43:48.715Z,22.88
2017-07-21T22:45:04.131Z,22.74
2017-07-21T22:46:19.672Z,22.71
2017-07-21T22:47:34.672Z,22.59
2017-07-21T22:48:49.990Z,22.53
2017-07-21T22:50:05.892Z,22.47
2017-07-21T22:51:21.068Z,22.4
2017-07-21T22:52:36.417Z,22.31
2017-07-21T22:53:49.942Z,22.16
2017-07-21T22:55:03.841Z,22.01
2017-07-21T22:56:17.693Z,22.01
2017-07-21T22:57:31.251Z,21.84
2017-07-21T22:58:45.049Z,21.69
2017-07-21T22:59:58.686Z,21.54
2017-07-21T23:01:12.289Z,21.65
2017-07-21T23:02:26.269Z,21.65
2017-07-21T23:03:39.773Z,21.69
2017-07-21T23:04:53.962Z,21.51
2017-07-21T23:06:07.546Z,21.58
2017-07-21T23:07:21.069Z,21.56
2017-07-21T23:08:34.603Z,21.48
2017-07-21T23:09:48.266Z,21.51
2017-07-21T23:11:02.459Z,21.33
2017-07-21T23:12:16.054Z,21.4
2017-07-21T23:13:29.608Z,21.35
2017-07-21T23:14:43.153Z,21.19
2017-07-21T23:15:57.038Z,21.13
2017-07-21T23:17:10.878Z,21.04
2017-07-21T23:18:24.423Z,21.04
2017-07-21T23:19:37.964Z,21.05
2017-07-21T23:20:51.838Z,21.04
2017-07-21T23:22:05.414Z,20.93
2017-07-21T23:23:19.230Z,21.01
2017-07-21T23:24:32.955Z,21
2017-07-21T23:25:46.514Z,21.04
2017-07-21T23:27:01.707Z,21.07
2017-07-21T23:28:16.284Z,21.08
2017-07-21T23:29:31.291Z,20.96
2017-07-21T23:30:49.337Z,20.85
2017-07-21T23:32:12.587Z,20.9
2017-07-21T23:33:34.570Z,20.82
2017-07-21T23:34:48.391Z,20.78
2017-07-21T23:36:02.245Z,20.92
2017-07-21T23:37:15.881Z,20.86
2017-07-21T23:38:29.804Z,20.89
2017-07-21T23:39:44.946Z,20.86
2017-07-21T23:40:59.123Z,20.82
2017-07-21T23:42:12.811Z,20.85
2017-07-21T23:43:26.474Z,20.93
2017-07-21T23:44:40.140Z,20.9
2017-07-21T23:45:54.448Z,20.85
2017-07-21T23:47:09.028Z,20.89
2017-07-21T23:48:35.645Z,20.71
2017-07-21T23:49:49.196Z,20.82
2017-07-21T23:51:02.840Z,20.88
2017-07-21T23:52:16.411Z,20.77
2017-07-21T23:53:30.597Z,20.68
2017-07-21T23:54:44.990Z,20.77
2017-07-21T23:55:59.084Z,20.68
2017-07-21T23:57:13.005Z,20.67
2017-07-21T23:58:26.780Z,20.66
2017-07-21T23:59:42.021Z,20.7
